Time;durP1;ratioP1;P1;durP2;ratioP2;P2;SDS_P1;SDS_P2;PMS_P1;PMS_P2;Temp;Humidity;BMP_temperature;BMP_pressure;BME280_temperature;BME280_humidity;BME280_pressure;Samples;Min_cycle;Max_cycle;Signal;HPM_P1;HPM_P2
2023/05/27 00:01:24;;;;;;;;;;;11.50;72.20;;;;;;5016366;28;20014;-86
2023/05/27 00:03:49;;;;;;;;;;;11.60;72.00;;;;;;5013603;28;20108;-86
2023/05/27 00:06:15;;;;;;;;;;;11.50;72.00;;;;;;5013432;28;19921;-86
2023/05/27 00:08:40;;;;;;;;;;;11.30;72.90;;;;;;5027574;28;19968;-86
2023/05/27 00:11:06;;;;;;;;;;;11.30;72.60;;;;;;5014757;28;19993;-86
2023/05/27 00:13:31;;;;;;;;;;;11.10;73.30;;;;;;5013859;28;19977;-86
2023/05/27 00:15:57;;;;;;;;;;;11.20;73.50;;;;;;5013838;28;19910;-86
2023/05/27 00:18:22;;;;;;;;;;;11.10;73.20;;;;;;5012044;28;19913;-86
2023/05/27 00:20:48;;;;;;;;;;;11.00;73.90;;;;;;5013916;28;19917;-86
2023/05/27 00:23:16;;;;;;;;;;;11.00;74.20;;;;;;5006367;28;19914;-86
2023/05/27 00:25:41;;;;;;;;;;;11.10;73.60;;;;;;5011601;28;19936;-86
2023/05/27 00:28:07;;;;;;;;;;;11.00;74.60;;;;;;5011106;28;19913;-86
2023/05/27 00:30:32;;;;;;;;;;;10.90;74.70;;;;;;5012894;28;19909;-86
2023/05/27 00:32:58;;;;;;;;;;;10.80;74.80;;;;;;5014054;28;19918;-86
2023/05/27 00:35:23;;;;;;;;;;;10.80;75.20;;;;;;5012985;28;19949;-86
2023/05/27 00:37:49;;;;;;;;;;;10.90;74.70;;;;;;5007497;28;20007;-86
2023/05/27 00:40:17;;;;;;;;;;;10.70;74.80;;;;;;5013901;28;19922;-86
2023/05/27 00:42:42;;;;;;;;;;;10.60;75.80;;;;;;5011659;28;19925;-86
2023/05/27 00:45:08;;;;;;;;;;;10.70;75.60;;;;;;5010773;28;19913;-86
2023/05/27 00:47:34;;;;;;;;;;;10.80;75.10;;;;;;5005284;28;19914;-86
2023/05/27 00:50:00;;;;;;;;;;;10.80;75.20;;;;;;5014410;28;19987;-86
2023/05/27 00:52:25;;;;;;;;;;;10.70;75.60;;;;;;5012578;28;20386;-85
2023/05/27 00:54:52;;;;;;;;;;;10.70;75.10;;;;;;5011421;28;19918;-86
2023/05/27 00:57:17;;;;;;;;;;;10.60;75.40;;;;;;5011484;28;19917;-86
2023/05/27 00:59:43;;;;;;;;;;;10.60;75.80;;;;;;5013461;28;19913;-86
2023/05/27 01:02:08;;;;;;;;;;;10.60;75.50;;;;;;5010111;28;19952;-86
2023/05/27 01:13:46;;;;;;;;;;;10.20;76.90;;;;;;5008212;28;20312;-85
2023/05/27 01:16:12;;;;;;;;;;;10.30;77.30;;;;;;5027939;28;19992;-86
2023/05/27 01:18:40;;;;;;;;;;;10.30;77.00;;;;;;5012744;28;19917;-85
2023/05/27 01:21:07;;;;;;;;;;;10.30;77.30;;;;;;5020200;28;19913;-85
2023/05/27 01:23:32;;;;;;;;;;;10.50;76.70;;;;;;5035720;28;19902;-84
2023/05/27 01:25:58;;;;;;;;;;;10.40;76.20;;;;;;5026988;28;20279;-85
2023/05/27 01:28:24;;;;;;;;;;;10.40;76.70;;;;;;5003268;28;19913;-86
2023/05/27 01:30:51;;;;;;;;;;;10.40;76.70;;;;;;5011276;28;19917;-85
2023/05/27 01:33:23;;;;;;;;;;;10.50;75.90;;;;;;5012513;28;20406;-86
2023/05/27 01:35:48;;;;;;;;;;;10.30;76.70;;;;;;5002378;28;20367;-85
2023/05/27 01:38:18;;;;;;;;;;;10.20;76.80;;;;;;5011177;28;19920;-85
2023/05/27 01:40:44;;;;;;;;;;;10.30;76.30;;;;;;5011615;28;19939;-85
2023/05/27 01:43:10;;;;;;;;;;;10.10;77.20;;;;;;5011281;28;20375;-85
2023/05/27 01:45:36;;;;;;;;;;;10.10;77.50;;;;;;5010209;28;19917;-85
2023/05/27 01:48:01;;;;;;;;;;;10.00;77.70;;;;;;5012386;28;19913;-85
2023/05/27 01:50:29;;;;;;;;;;;10.00;77.40;;;;;;5011745;28;19921;-85
2023/05/27 01:52:55;;;;;;;;;;;10.00;78.10;;;;;;5006595;28;19928;-85
2023/05/27 01:55:20;;;;;;;;;;;10.10;77.80;;;;;;5011972;28;19918;-85
2023/05/27 01:57:46;;;;;;;;;;;10.10;77.20;;;;;;5013265;28;20418;-85
2023/05/27 02:00:12;;;;;;;;;;;10.00;77.60;;;;;;5008216;28;19913;-85
2023/05/27 02:02:38;;;;;;;;;;;10.00;77.80;;;;;;5010789;28;20399;-85
2023/05/27 02:05:03;;;;;;;;;;;10.00;77.90;;;;;;5013184;28;19909;-85
2023/05/27 02:07:31;;;;;;;;;;;10.00;77.40;;;;;;5011971;28;20081;-85
2023/05/27 02:09:57;;;;;;;;;;;9.90;78.00;;;;;;5020418;28;19921;-85
2023/05/27 02:12:22;;;;;;;;;;;9.80;78.10;;;;;;5009549;28;19924;-85
2023/05/27 02:14:49;;;;;;;;;;;9.80;78.30;;;;;;5011908;28;19920;-86
2023/05/27 02:17:14;;;;;;;;;;;9.90;78.40;;;;;;5010606;28;20383;-85
2023/05/27 02:19:40;;;;;;;;;;;9.90;77.60;;;;;;4999218;28;19918;-85
2023/05/27 02:22:05;;;;;;;;;;;9.80;78.00;;;;;;5008858;28;19917;-85
2023/05/27 02:24:31;;;;;;;;;;;9.90;77.90;;;;;;5009275;28;19917;-85
2023/05/27 02:27:00;;;;;;;;;;;9.80;78.00;;;;;;5008890;28;19914;-85
2023/05/27 02:29:25;;;;;;;;;;;9.80;78.20;;;;;;5012567;28;19917;-84
2023/05/27 02:31:51;;;;;;;;;;;9.80;78.30;;;;;;5012992;28;20012;-86
2023/05/27 02:34:19;;;;;;;;;;;9.70;78.50;;;;;;5010414;28;20386;-85
2023/05/27 02:36:44;;;;;;;;;;;9.70;78.80;;;;;;5009782;28;19925;-85
2023/05/27 02:39:15;;;;;;;;;;;9.60;79.10;;;;;;5009800;28;19967;-85
2023/05/27 02:41:41;;;;;;;;;;;9.70;79.30;;;;;;5009983;28;19952;-85
2023/05/27 02:44:07;;;;;;;;;;;9.60;79.20;;;;;;5012487;28;19996;-85
2023/05/27 02:46:34;;;;;;;;;;;9.60;79.30;;;;;;5009607;28;20031;-85
2023/05/27 02:49:00;;;;;;;;;;;9.60;79.50;;;;;;5011271;28;19910;-85
2023/05/27 02:51:27;;;;;;;;;;;9.60;79.40;;;;;;5011142;28;19920;-85
2023/05/27 02:53:53;;;;;;;;;;;9.70;79.10;;;;;;5011503;28;19913;-85
2023/05/27 02:56:18;;;;;;;;;;;9.60;78.90;;;;;;5009927;28;20482;-85
2023/05/27 02:58:44;;;;;;;;;;;9.40;79.20;;;;;;5010667;28;20559;-85
2023/05/27 03:01:10;;;;;;;;;;;9.40;79.60;;;;;;5011138;28;20004;-85
2023/05/27 03:03:35;;;;;;;;;;;9.40;79.80;;;;;;5018938;28;19920;-85
2023/05/27 03:06:01;;;;;;;;;;;9.20;79.70;;;;;;5017158;28;19921;-85
2023/05/27 03:08:26;;;;;;;;;;;9.10;80.20;;;;;;5007863;28;19914;-84
2023/05/27 03:10:52;;;;;;;;;;;9.10;80.10;;;;;;5010033;28;19968;-85
2023/05/27 03:13:17;;;;;;;;;;;9.10;80.00;;;;;;5010292;28;19918;-85
2023/05/27 03:15:43;;;;;;;;;;;8.90;80.20;;;;;;5013400;28;19940;-85
2023/05/27 03:18:08;;;;;;;;;;;8.90;80.60;;;;;;5014039;28;20288;-85
2023/05/27 03:20:34;;;;;;;;;;;8.90;81.10;;;;;;5014821;28;20283;-85
2023/05/27 03:22:59;;;;;;;;;;;9.10;81.00;;;;;;5012521;28;19917;-85
2023/05/27 03:25:25;;;;;;;;;;;9.10;81.20;;;;;;5012376;28;19922;-85
2023/05/27 03:27:53;;;;;;;;;;;9.30;80.80;;;;;;5007652;28;19960;-85
2023/05/27 03:30:19;;;;;;;;;;;9.30;80.20;;;;;;5013413;28;19913;-85
2023/05/27 03:32:45;;;;;;;;;;;9.30;79.80;;;;;;5007615;28;20394;-85
2023/05/27 03:35:13;;;;;;;;;;;9.30;80.40;;;;;;5013964;28;20000;-85
2023/05/27 03:37:38;;;;;;;;;;;9.20;80.70;;;;;;5005494;28;19918;-86
2023/05/27 03:40:06;;;;;;;;;;;9.20;80.70;;;;;;5028203;28;19924;-85
2023/05/27 03:42:34;;;;;;;;;;;9.30;81.00;;;;;;5014035;28;19914;-86
2023/05/27 03:45:00;;;;;;;;;;;9.30;80.80;;;;;;5018858;28;19928;-85
2023/05/27 03:47:31;;;;;;;;;;;9.40;80.60;;;;;;5008722;28;19917;-86
2023/05/27 03:49:56;;;;;;;;;;;9.30;80.60;;;;;;5012220;28;19937;-85
2023/05/27 03:52:22;;;;;;;;;;;9.10;79.90;;;;;;5021729;28;20371;-85
2023/05/27 03:54:48;;;;;;;;;;;9.00;80.40;;;;;;5012961;28;19921;-85
2023/05/27 03:57:20;;;;;;;;;;;8.80;80.60;;;;;;5013097;28;20383;-85
2023/05/27 03:59:46;;;;;;;;;;;8.80;80.90;;;;;;5013199;28;19916;-85
2023/05/27 04:02:14;;;;;;;;;;;8.70;81.20;;;;;;5011285;28;19913;-85
2023/05/27 04:04:39;;;;;;;;;;;8.80;81.40;;;;;;5019818;28;19917;-85
2023/05/27 04:07:07;;;;;;;;;;;8.60;81.50;;;;;;5010153;28;19917;-85
2023/05/27 04:09:35;;;;;;;;;;;8.60;81.90;;;;;;5013774;28;20410;-85
2023/05/27 04:12:04;;;;;;;;;;;8.60;82.10;;;;;;5015956;28;20040;-85
2023/05/27 04:14:29;;;;;;;;;;;8.60;82.00;;;;;;5020068;28;19919;-85
2023/05/27 04:16:55;;;;;;;;;;;8.60;82.40;;;;;;5020874;28;20008;-85
2023/05/27 04:19:20;;;;;;;;;;;8.70;82.60;;;;;;5013874;28;19918;-85
2023/05/27 04:21:48;;;;;;;;;;;8.80;82.60;;;;;;5015331;28;19925;-84
2023/05/27 04:24:13;;;;;;;;;;;8.80;82.80;;;;;;5026247;28;19913;-85
2023/05/27 04:26:40;;;;;;;;;;;9.00;82.70;;;;;;5014101;28;20283;-85
2023/05/27 04:29:12;;;;;;;;;;;9.10;82.40;;;;;;5029078;28;19921;-86
2023/05/27 04:31:38;;;;;;;;;;;9.20;81.70;;;;;;5015443;28;19910;-86
2023/05/27 04:34:03;;;;;;;;;;;9.10;81.60;;;;;;5010792;28;19913;-85
2023/05/27 04:36:33;;;;;;;;;;;9.10;81.90;;;;;;5011510;28;20368;-85
2023/05/27 04:39:01;;;;;;;;;;;9.20;81.60;;;;;;5013439;28;19959;-85
2023/05/27 04:41:28;;;;;;;;;;;9.30;81.40;;;;;;5025534;28;19956;-85
2023/05/27 04:43:56;;;;;;;;;;;9.30;81.20;;;;;;5012924;28;19967;-86
2023/05/27 04:46:23;;;;;;;;;;;9.30;81.30;;;;;;5012647;28;19913;-85
2023/05/27 04:48:52;;;;;;;;;;;9.40;81.40;;;;;;5012421;28;19913;-85
2023/05/27 04:51:20;;;;;;;;;;;9.50;81.30;;;;;;5011795;28;19910;-86
2023/05/27 04:53:47;;;;;;;;;;;9.60;80.80;;;;;;5013497;28;19918;-85
2023/05/27 04:56:15;;;;;;;;;;;9.70;80.00;;;;;;5033109;23;20435;-86
2023/05/27 04:58:55;;;;;;;;;;;9.70;80.20;;;;;;5037020;28;20398;-85
2023/05/27 05:01:22;;;;;;;;;;;9.60;80.10;;;;;;5036184;28;19938;-84
2023/05/27 05:04:29;;;;;;;;;;;9.60;80.70;;;;;;5036456;28;19952;-85
2023/05/27 05:07:24;;;;;;;;;;;9.60;81.00;;;;;;4993937;28;20369;-85
2023/05/27 05:09:50;;;;;;;;;;;9.80;80.80;;;;;;4998527;28;19918;-82
2023/05/27 05:12:26;;;;;;;;;;;9.80;80.30;;;;;;5022075;28;20382;-83
2023/05/27 05:15:10;;;;;;;;;;;9.80;80.70;;;;;;5011592;28;19914;-83
2023/05/27 05:17:55;;;;;;;;;;;9.90;80.90;;;;;;5023482;28;19917;-84
2023/05/27 05:20:36;;;;;;;;;;;10.00;80.70;;;;;;5003361;28;19918;-84
2023/05/27 05:23:09;;;;;;;;;;;10.20;80.30;;;;;;5029263;28;19917;-85
2023/05/27 05:25:37;;;;;;;;;;;10.30;79.80;;;;;;5032288;22;19929;-83
2023/05/27 05:28:06;;;;;;;;;;;10.20;79.90;;;;;;5012239;28;19913;-83
2023/05/27 05:30:31;;;;;;;;;;;10.30;79.90;;;;;;5015357;28;19940;-84
2023/05/27 05:32:57;;;;;;;;;;;10.50;79.60;;;;;;5015634;28;20004;-85
2023/05/27 05:35:23;;;;;;;;;;;10.40;79.50;;;;;;5015583;28;19914;-84
2023/05/27 05:37:49;;;;;;;;;;;10.40;80.10;;;;;;5022366;28;19917;-85
2023/05/27 05:40:14;;;;;;;;;;;10.30;80.10;;;;;;5028020;28;19929;-84
2023/05/27 05:42:40;;;;;;;;;;;10.60;79.40;;;;;;5027052;28;19944;-83
2023/05/27 05:45:06;;;;;;;;;;;10.80;79.00;;;;;;5014392;28;20358;-84
2023/05/27 05:47:32;;;;;;;;;;;10.80;79.70;;;;;;5013433;28;19921;-85
2023/05/27 05:49:57;;;;;;;;;;;11.00;79.60;;;;;;5015808;28;19945;-85
2023/05/27 05:52:23;;;;;;;;;;;11.00;78.60;;;;;;5017856;28;19917;-84
2023/05/27 05:54:48;;;;;;;;;;;11.00;78.20;;;;;;5023720;28;19917;-84
2023/05/27 05:57:14;;;;;;;;;;;11.00;79.20;;;;;;5012100;28;19920;-83
2023/05/27 05:59:39;;;;;;;;;;;11.00;79.60;;;;;;5015588;28;19956;-82
2023/05/27 06:02:05;;;;;;;;;;;11.00;78.50;;;;;;5004615;28;20420;-81
2023/05/27 06:04:30;;;;;;;;;;;10.80;79.10;;;;;;5008535;28;19947;-81
2023/05/27 06:06:56;;;;;;;;;;;10.90;78.90;;;;;;5003411;28;19913;-81
2023/05/27 06:09:22;;;;;;;;;;;10.90;79.00;;;;;;5011728;28;19920;-82
2023/05/27 06:11:47;;;;;;;;;;;10.90;79.80;;;;;;5021748;28;19929;-81
2023/05/27 06:14:13;;;;;;;;;;;11.10;80.30;;;;;;5010367;28;19919;-81
2023/05/27 06:16:39;;;;;;;;;;;11.20;77.90;;;;;;5023728;28;19925;-81
2023/05/27 06:19:05;;;;;;;;;;;11.20;78.30;;;;;;5004359;28;19956;-84
2023/05/27 06:21:32;;;;;;;;;;;11.40;78.10;;;;;;5020180;28;19918;-84
2023/05/27 06:23:58;;;;;;;;;;;11.50;77.60;;;;;;4998740;28;20277;-83
2023/05/27 06:26:24;;;;;;;;;;;11.50;77.20;;;;;;5008075;28;19956;-84
2023/05/27 06:28:49;;;;;;;;;;;11.50;78.10;;;;;;5012233;28;19918;-81
2023/05/27 06:31:14;;;;;;;;;;;11.50;77.40;;;;;;5013613;28;19921;-83
2023/05/27 06:33:43;;;;;;;;;;;11.70;75.70;;;;;;5017639;28;20365;-80
2023/05/27 06:36:08;;;;;;;;;;;11.70;76.10;;;;;;5012259;28;19913;-82
2023/05/27 06:38:34;;;;;;;;;;;11.70;76.40;;;;;;5012249;28;19979;-81
2023/05/27 06:40:59;;;;;;;;;;;11.80;77.20;;;;;;5009169;28;19914;-80
2023/05/27 06:43:25;;;;;;;;;;;11.80;77.10;;;;;;5017934;28;19909;-82
2023/05/27 06:45:50;;;;;;;;;;;11.90;76.30;;;;;;5008485;28;19914;-81
2023/05/27 06:48:16;;;;;;;;;;;11.90;76.10;;;;;;5014195;28;19928;-81
2023/05/27 06:50:41;;;;;;;;;;;11.90;76.40;;;;;;5013632;28;19928;-81
2023/05/27 06:53:07;;;;;;;;;;;12.00;76.00;;;;;;5013564;28;19924;-81
2023/05/27 06:55:32;;;;;;;;;;;12.10;75.10;;;;;;5005958;28;19918;-83
2023/05/27 06:57:58;;;;;;;;;;;12.10;75.50;;;;;;5009704;28;19914;-82
2023/05/27 07:00:23;;;;;;;;;;;12.10;75.90;;;;;;5021082;28;19953;-82
2023/05/27 07:02:48;;;;;;;;;;;12.10;76.30;;;;;;5013115;28;19939;-81
2023/05/27 07:05:14;;;;;;;;;;;12.20;76.20;;;;;;5013245;28;19913;-82
2023/05/27 07:07:40;;;;;;;;;;;12.20;75.80;;;;;;5012256;28;19917;-80
2023/05/27 07:10:05;;;;;;;;;;;12.30;75.40;;;;;;5016863;28;19932;-82
2023/05/27 07:12:31;;;;;;;;;;;12.30;75.50;;;;;;5020162;28;19917;-81
2023/05/27 07:14:56;;;;;;;;;;;12.30;75.10;;;;;;5018766;28;20003;-83
2023/05/27 07:17:22;;;;;;;;;;;12.40;75.10;;;;;;5029978;28;20388;-83
2023/05/27 07:19:47;;;;;;;;;;;12.50;75.90;;;;;;5017628;28;19921;-82
2023/05/27 07:22:13;;;;;;;;;;;12.50;75.20;;;;;;5010830;28;19941;-80
2023/05/27 07:24:38;;;;;;;;;;;12.60;75.70;;;;;;5016407;28;20500;-83
2023/05/27 07:27:04;;;;;;;;;;;12.70;74.40;;;;;;5013972;28;19937;-81
2023/05/27 07:29:29;;;;;;;;;;;13.00;73.50;;;;;;5014764;28;19917;-80
2023/05/27 07:31:54;;;;;;;;;;;13.00;74.00;;;;;;5013980;28;20019;-83
2023/05/27 07:34:23;;;;;;;;;;;13.00;75.30;;;;;;5016589;28;19910;-82
2023/05/27 07:36:49;;;;;;;;;;;13.00;74.60;;;;;;5029699;28;20361;-82
2023/05/27 07:39:14;;;;;;;;;;;13.10;74.40;;;;;;5009142;28;19932;-82
2023/05/27 07:41:40;;;;;;;;;;;13.10;74.40;;;;;;5005532;28;20159;-81
2023/05/27 07:44:05;;;;;;;;;;;13.20;74.60;;;;;;5003179;28;19939;-80
2023/05/27 07:46:32;;;;;;;;;;;13.30;73.20;;;;;;5013837;28;20004;-82
2023/05/27 07:48:57;;;;;;;;;;;13.30;73.00;;;;;;5012032;28;19913;-81
2023/05/27 07:51:23;;;;;;;;;;;13.60;73.60;;;;;;5006781;28;20384;-84
2023/05/27 07:53:48;;;;;;;;;;;13.70;71.10;;;;;;5011764;28;19918;-81
2023/05/27 07:56:14;;;;;;;;;;;13.60;72.00;;;;;;5005341;28;20335;-82
2023/05/27 07:58:39;;;;;;;;;;;13.60;71.90;;;;;;5002581;28;19918;-83
2023/05/27 08:01:05;;;;;;;;;;;13.60;73.00;;;;;;5002222;28;20513;-81
2023/05/27 08:03:30;;;;;;;;;;;13.70;72.70;;;;;;5012298;28;20281;-81
2023/05/27 08:05:56;;;;;;;;;;;13.80;71.00;;;;;;5021628;28;19928;-81
2023/05/27 08:08:21;;;;;;;;;;;13.80;70.70;;;;;;5013598;28;19917;-82
2023/05/27 08:10:47;;;;;;;;;;;14.00;71.00;;;;;;5013030;28;19960;-82
2023/05/27 08:13:12;;;;;;;;;;;14.10;71.70;;;;;;5014748;28;19957;-82
2023/05/27 08:15:38;;;;;;;;;;;14.10;70.00;;;;;;5014644;28;19909;-82
2023/05/27 08:18:03;;;;;;;;;;;14.10;70.90;;;;;;5016911;28;20579;-82
2023/05/27 08:20:29;;;;;;;;;;;14.10;71.80;;;;;;5014626;28;19913;-83
2023/05/27 08:22:54;;;;;;;;;;;14.30;71.90;;;;;;5011139;28;19993;-81
2023/05/27 08:25:20;;;;;;;;;;;14.30;69.90;;;;;;5012668;28;19944;-83
2023/05/27 08:27:48;;;;;;;;;;;14.20;69.90;;;;;;5013046;28;19917;-83
2023/05/27 08:30:14;;;;;;;;;;;14.50;70.60;;;;;;5011021;28;19917;-82
2023/05/27 08:32:40;;;;;;;;;;;14.60;68.90;;;;;;5010938;28;19957;-81
2023/05/27 08:35:06;;;;;;;;;;;14.60;68.60;;;;;;5010404;28;19963;-80
2023/05/27 08:37:32;;;;;;;;;;;14.70;68.00;;;;;;5018243;28;19917;-81
2023/05/27 08:39:57;;;;;;;;;;;14.60;69.10;;;;;;5023700;28;19917;-82
2023/05/27 08:42:24;;;;;;;;;;;14.60;69.80;;;;;;5015200;28;20368;-84
2023/05/27 08:44:50;;;;;;;;;;;14.60;69.20;;;;;;5015102;28;19917;-83
2023/05/27 08:47:15;;;;;;;;;;;14.70;69.20;;;;;;5010658;28;19921;-82
2023/05/27 08:49:41;;;;;;;;;;;14.80;68.80;;;;;;5016399;28;19920;-83
2023/05/27 08:52:08;;;;;;;;;;;14.90;68.80;;;;;;5016688;28;19917;-85
2023/05/27 08:54:35;;;;;;;;;;;14.90;69.50;;;;;;5015813;28;19917;-82
2023/05/27 08:57:03;;;;;;;;;;;15.00;68.00;;;;;;5018250;28;19965;-81
2023/05/27 08:59:29;;;;;;;;;;;15.10;67.60;;;;;;5015186;28;20365;-80
2023/05/27 09:01:56;;;;;;;;;;;15.20;68.70;;;;;;5030059;28;19924;-84
2023/05/27 09:04:22;;;;;;;;;;;15.60;69.00;;;;;;5014886;28;19950;-84
2023/05/27 09:06:47;;;;;;;;;;;15.50;67.60;;;;;;5019188;28;19972;-83
2023/05/27 09:09:13;;;;;;;;;;;15.60;67.20;;;;;;5010323;28;19913;-82
2023/05/27 09:11:39;;;;;;;;;;;15.70;66.20;;;;;;5007038;28;19913;-84
2023/05/27 09:14:05;;;;;;;;;;;15.70;64.10;;;;;;5008047;28;19926;-80
2023/05/27 09:16:32;;;;;;;;;;;15.70;66.50;;;;;;5008358;28;20277;-81
2023/05/27 09:18:58;;;;;;;;;;;15.90;63.20;;;;;;5007098;28;20007;-80
2023/05/27 09:21:25;;;;;;;;;;;16.10;63.20;;;;;;5026576;28;19913;-80
2023/05/27 09:23:54;;;;;;;;;;;16.10;62.70;;;;;;5016397;28;19914;-80
2023/05/27 09:26:23;;;;;;;;;;;16.10;63.50;;;;;;5035790;28;19983;-80
2023/05/27 09:28:48;;;;;;;;;;;16.10;63.10;;;;;;5019248;28;19956;-80
2023/05/27 09:31:14;;;;;;;;;;;16.20;63.20;;;;;;5021958;28;19913;-79
2023/05/27 09:33:39;;;;;;;;;;;16.10;62.00;;;;;;5015730;28;19917;-80
2023/05/27 09:36:06;;;;;;;;;;;16.00;63.90;;;;;;5018578;28;19913;-80
2023/05/27 09:38:32;;;;;;;;;;;16.20;60.90;;;;;;5022218;28;19932;-79
2023/05/27 09:40:58;;;;;;;;;;;16.40;62.90;;;;;;5023099;28;19980;-80
2023/05/27 09:43:24;;;;;;;;;;;16.60;63.60;;;;;;5020914;28;19910;-78
2023/05/27 09:45:51;;;;;;;;;;;16.70;61.70;;;;;;5020564;28;19914;-81
2023/05/27 09:48:18;;;;;;;;;;;16.80;61.20;;;;;;5021977;28;20379;-79
2023/05/27 09:50:43;;;;;;;;;;;16.80;59.00;;;;;;5015272;28;19909;-78
2023/05/27 09:53:10;;;;;;;;;;;16.80;60.50;;;;;;5017690;28;20000;-79
2023/05/27 09:55:35;;;;;;;;;;;16.90;57.00;;;;;;5010117;28;19917;-82
2023/05/27 09:58:01;;;;;;;;;;;17.00;59.60;;;;;;5009501;28;19924;-82
2023/05/27 10:00:28;;;;;;;;;;;17.00;58.80;;;;;;5009853;28;19983;-82
2023/05/27 10:02:57;;;;;;;;;;;17.00;58.40;;;;;;5010957;28;19940;-86
2023/05/27 10:05:22;;;;;;;;;;;17.10;57.20;;;;;;5011918;28;19910;-86
2023/05/27 10:07:48;;;;;;;;;;;17.10;56.60;;;;;;5012320;28;19932;-84
2023/05/27 10:10:17;;;;;;;;;;;17.00;58.70;;;;;;5012949;28;20000;-89
2023/05/27 10:12:43;;;;;;;;;;;17.20;57.40;;;;;;5010386;28;20436;-85
2023/05/27 10:15:09;;;;;;;;;;;17.20;58.30;;;;;;5018766;28;19914;-83
2023/05/27 10:18:01;;;;;;;;;;;17.30;56.20;;;;;;5010188;28;19917;-82
2023/05/27 10:20:33;;;;;;;;;;;17.30;56.30;;;;;;5010256;28;20427;-80
2023/05/27 10:23:18;;;;;;;;;;;17.30;57.80;;;;;;5008144;28;20373;-81
2023/05/27 10:25:48;;;;;;;;;;;17.40;55.50;;;;;;5006532;28;19917;-80
2023/05/27 10:28:23;;;;;;;;;;;17.30;55.90;;;;;;5007637;28;20003;-81
2023/05/27 10:30:48;;;;;;;;;;;17.40;59.10;;;;;;5003310;28;19920;-84
2023/05/27 10:33:14;;;;;;;;;;;17.50;59.80;;;;;;5010694;28;19917;-83
2023/05/27 10:35:41;;;;;;;;;;;17.80;58.20;;;;;;5014508;28;19909;-80
2023/05/27 10:38:18;;;;;;;;;;;17.80;56.40;;;;;;5012908;28;19960;-79
2023/05/27 10:40:45;;;;;;;;;;;17.70;56.40;;;;;;5013463;28;19928;-81
2023/05/27 10:43:18;;;;;;;;;;;17.70;58.30;;;;;;5016037;28;19909;-82
2023/05/27 10:45:43;;;;;;;;;;;17.90;57.70;;;;;;5023715;28;19933;-80
2023/05/27 10:48:16;;;;;;;;;;;17.90;56.70;;;;;;5023550;28;19914;-83
2023/05/27 10:50:49;;;;;;;;;;;18.00;54.30;;;;;;5014260;28;20409;-81
2023/05/27 10:53:16;;;;;;;;;;;18.10;59.40;;;;;;5009918;28;19921;-82
2023/05/27 10:55:42;;;;;;;;;;;18.10;56.80;;;;;;5033254;23;20020;-78
2023/05/27 10:58:07;;;;;;;;;;;18.10;54.60;;;;;;5026467;28;20344;-78
2023/05/27 11:00:33;;;;;;;;;;;18.10;55.60;;;;;;5030040;28;19913;-78
2023/05/27 11:02:59;;;;;;;;;;;18.10;55.70;;;;;;5015153;28;19932;-80
2023/05/27 11:05:39;;;;;;;;;;;18.10;58.00;;;;;;5032940;28;19917;-84
2023/05/27 11:08:09;;;;;;;;;;;18.10;56.40;;;;;;5031304;28;20372;-83
2023/05/27 11:10:35;;;;;;;;;;;18.20;58.10;;;;;;5031385;28;19924;-87
2023/05/27 11:13:00;;;;;;;;;;;18.40;56.00;;;;;;5010677;28;19921;-85
2023/05/27 11:15:26;;;;;;;;;;;18.50;56.10;;;;;;5026531;28;19909;-84
2023/05/27 11:17:52;;;;;;;;;;;18.50;55.00;;;;;;5024806;28;19956;-86
2023/05/27 11:20:17;;;;;;;;;;;18.30;56.20;;;;;;5031558;28;19917;-87
2023/05/27 11:22:48;;;;;;;;;;;18.40;54.70;;;;;;5013051;28;20331;-86
2023/05/27 11:25:14;;;;;;;;;;;18.40;54.90;;;;;;5038834;28;20022;-85
2023/05/27 11:27:42;;;;;;;;;;;18.30;54.90;;;;;;5031336;28;19913;-85
2023/05/27 11:30:09;;;;;;;;;;;18.50;58.80;;;;;;5030953;28;20339;-85
2023/05/27 11:32:35;;;;;;;;;;;18.60;56.00;;;;;;5009392;28;19924;-84
2023/05/27 11:35:01;;;;;;;;;;;18.80;56.90;;;;;;5017014;28;19913;-85
2023/05/27 11:37:30;;;;;;;;;;;19.00;55.30;;;;;;5016102;28;20028;-83
2023/05/27 11:39:56;;;;;;;;;;;18.90;56.20;;;;;;5020854;28;19995;-86
2023/05/27 11:42:24;;;;;;;;;;;19.00;54.70;;;;;;5024356;28;19968;-87
2023/05/27 11:44:51;;;;;;;;;;;19.00;54.00;;;;;;5023252;28;20324;-87
2023/05/27 11:47:17;;;;;;;;;;;18.80;52.90;;;;;;5015059;28;20024;-86
2023/05/27 11:49:42;;;;;;;;;;;18.70;53.60;;;;;;5015048;28;19952;-86
2023/05/27 11:52:10;;;;;;;;;;;18.80;56.10;;;;;;5032601;28;20011;-86
2023/05/27 11:54:37;;;;;;;;;;;18.80;52.70;;;;;;5018626;28;20376;-85
2023/05/27 11:57:06;;;;;;;;;;;18.90;54.40;;;;;;5048890;28;20620;-83
2023/05/27 11:59:36;;;;;;;;;;;19.20;55.40;;;;;;5015495;28;19913;-85
2023/05/27 12:02:01;;;;;;;;;;;19.20;54.10;;;;;;5015340;28;19921;-86
2023/05/27 12:04:27;;;;;;;;;;;19.20;52.30;;;;;;5029482;28;20411;-85
2023/05/27 12:06:52;;;;;;;;;;;19.10;51.30;;;;;;5030769;28;19913;-85
2023/05/27 12:09:21;;;;;;;;;;;19.00;53.40;;;;;;5015204;28;19959;-85
2023/05/27 12:11:46;;;;;;;;;;;19.00;53.10;;;;;;5012459;28;19929;-85
2023/05/27 12:14:12;;;;;;;;;;;19.20;55.20;;;;;;5012166;28;19909;-85
2023/05/27 12:16:37;;;;;;;;;;;19.20;52.20;;;;;;5016469;28;19913;-84
2023/05/27 12:19:03;;;;;;;;;;;19.20;52.80;;;;;;5019232;28;19992;-83
2023/05/27 12:21:28;;;;;;;;;;;19.20;52.10;;;;;;5033156;28;19995;-85
2023/05/27 12:23:54;;;;;;;;;;;19.20;52.30;;;;;;5034094;28;19920;-85
2023/05/27 12:26:20;;;;;;;;;;;19.40;55.30;;;;;;5016345;28;19913;-85
2023/05/27 12:28:45;;;;;;;;;;;19.40;54.30;;;;;;5035166;28;19921;-86
2023/05/27 12:31:11;;;;;;;;;;;19.50;55.90;;;;;;5017855;28;19919;-85
2023/05/27 12:33:37;;;;;;;;;;;19.70;51.10;;;;;;5028113;28;19958;-86
2023/05/27 12:36:05;;;;;;;;;;;19.70;52.90;;;;;;5017138;28;19909;-85
2023/05/27 12:38:30;;;;;;;;;;;19.60;52.40;;;;;;5034413;28;20307;-86
2023/05/27 12:40:56;;;;;;;;;;;19.60;54.10;;;;;;5021502;28;20007;-84
2023/05/27 12:43:23;;;;;;;;;;;19.60;53.00;;;;;;5031455;28;20380;-85
2023/05/27 12:45:48;;;;;;;;;;;19.50;54.30;;;;;;5014904;28;19917;-86
2023/05/27 12:48:14;;;;;;;;;;;19.60;51.00;;;;;;5017244;28;19915;-84
2023/05/27 12:50:39;;;;;;;;;;;19.60;52.80;;;;;;5014668;28;20258;-84
2023/05/27 12:53:05;;;;;;;;;;;19.60;54.70;;;;;;5046634;28;19916;-84
2023/05/27 12:55:30;;;;;;;;;;;19.80;53.00;;;;;;5035220;28;20397;-83
2023/05/27 12:57:56;;;;;;;;;;;19.80;53.90;;;;;;5030293;28;20287;-85
2023/05/27 13:00:22;;;;;;;;;;;19.80;53.50;;;;;;5029719;28;19917;-83
2023/05/27 13:02:48;;;;;;;;;;;19.90;52.00;;;;;;5033721;28;20308;-83
2023/05/27 13:05:13;;;;;;;;;;;19.80;52.60;;;;;;5010695;28;19917;-86
2023/05/27 13:07:39;;;;;;;;;;;19.70;50.70;;;;;;5021059;28;20347;-82
2023/05/27 13:10:06;;;;;;;;;;;19.60;50.50;;;;;;5014719;28;19910;-82
2023/05/27 13:12:32;;;;;;;;;;;19.70;50.60;;;;;;5031687;28;19964;-82
2023/05/27 13:14:58;;;;;;;;;;;19.80;50.70;;;;;;5014623;28;19920;-83
2023/05/27 13:17:23;;;;;;;;;;;19.80;52.10;;;;;;5013029;28;20517;-81
2023/05/27 13:19:49;;;;;;;;;;;19.80;51.30;;;;;;5022744;28;20000;-82
2023/05/27 13:22:14;;;;;;;;;;;19.80;48.70;;;;;;5029395;28;19913;-81
2023/05/27 13:24:40;;;;;;;;;;;19.90;48.60;;;;;;5014738;28;19909;-83
2023/05/27 13:27:06;;;;;;;;;;;20.00;48.60;;;;;;5014643;28;20376;-81
2023/05/27 13:29:32;;;;;;;;;;;20.00;48.70;;;;;;5019724;28;19912;-81
2023/05/27 13:31:57;;;;;;;;;;;20.00;50.00;;;;;;5044707;28;19913;-81
2023/05/27 13:34:24;;;;;;;;;;;20.10;50.60;;;;;;5019249;28;19982;-81
2023/05/27 13:36:49;;;;;;;;;;;20.10;50.70;;;;;;5026514;28;19913;-78
2023/05/27 13:39:15;;;;;;;;;;;20.30;50.00;;;;;;5036182;28;19913;-79
2023/05/27 13:41:40;;;;;;;;;;;20.20;48.70;;;;;;5015459;28;19932;-83
2023/05/27 13:44:06;;;;;;;;;;;20.30;48.10;;;;;;5021149;28;19917;-81
2023/05/27 13:46:31;;;;;;;;;;;20.50;46.90;;;;;;5009809;28;21274;-83
2023/05/27 13:48:57;;;;;;;;;;;20.40;49.00;;;;;;5011390;28;19920;-81
2023/05/27 13:51:22;;;;;;;;;;;20.30;48.70;;;;;;5006334;28;19913;-83
2023/05/27 13:53:51;;;;;;;;;;;20.40;50.80;;;;;;5009090;28;20296;-83
2023/05/27 13:56:17;;;;;;;;;;;20.50;51.00;;;;;;5013417;28;19916;-82
2023/05/27 13:58:42;;;;;;;;;;;20.50;49.10;;;;;;5035890;28;19920;-80
2023/05/27 14:01:07;;;;;;;;;;;20.50;49.70;;;;;;5013950;28;19948;-82
2023/05/27 14:03:33;;;;;;;;;;;20.40;48.50;;;;;;5042340;28;19922;-81
2023/05/27 14:05:58;;;;;;;;;;;20.40;50.40;;;;;;5031537;28;19945;-81
2023/05/27 14:08:24;;;;;;;;;;;20.50;50.20;;;;;;5033760;28;19909;-81
2023/05/27 14:10:49;;;;;;;;;;;20.50;48.20;;;;;;5011438;28;19914;-82
2023/05/27 14:13:15;;;;;;;;;;;20.40;47.80;;;;;;5042210;28;19932;-83
2023/05/27 14:15:41;;;;;;;;;;;20.50;49.80;;;;;;5030141;28;20336;-82
2023/05/27 14:18:09;;;;;;;;;;;20.50;48.30;;;;;;5015157;28;20392;-82
2023/05/27 14:20:34;;;;;;;;;;;20.30;48.00;;;;;;5013406;28;19913;-83
2023/05/27 14:23:01;;;;;;;;;;;20.40;49.60;;;;;;5025090;28;19909;-83
2023/05/27 14:25:27;;;;;;;;;;;20.50;46.40;;;;;;5032480;28;19936;-80